sensor_id;sensor_type;location;lat;lon;timestamp;temperature;humidity
33095;DHT22;19459;53.044;8.910;2023-06-26T00:01:19;21.70;99.90
33095;DHT22;19459;53.044;8.910;2023-06-26T00:03:46;21.70;99.90
33095;DHT22;19459;53.044;8.910;2023-06-26T00:06:13;21.60;99.90
33095;DHT22;19459;53.044;8.910;2023-06-26T00:08:39;21.60;99.90
33095;DHT22;19459;53.044;8.910;2023-06-26T00:11:04;21.60;99.90
33095;DHT22;19459;53.044;8.910;2023-06-26T00:13:30;21.50;99.90
33095;DHT22;19459;53.044;8.910;2023-06-26T00:15:56;21.50;99.90
33095;DHT22;19459;53.044;8.910;2023-06-26T00:18:22;21.50;99.90
33095;DHT22;19459;53.044;8.910;2023-06-26T00:20:48;21.40;99.90
33095;DHT22;19459;53.044;8.910;2023-06-26T00:23:16;21.50;99.90
33095;DHT22;19459;53.044;8.910;2023-06-26T00:25:43;21.40;99.90
33095;DHT22;19459;53.044;8.910;2023-06-26T00:28:09;21.40;99.90
33095;DHT22;19459;53.044;8.910;2023-06-26T00:30:35;21.40;99.90
33095;DHT22;19459;53.044;8.910;2023-06-26T00:33:01;21.40;99.90
33095;DHT22;19459;53.044;8.910;2023-06-26T00:35:27;21.40;99.90
33095;DHT22;19459;53.044;8.910;2023-06-26T00:37:53;21.30;99.90
33095;DHT22;19459;53.044;8.910;2023-06-26T00:40:19;21.30;99.90
33095;DHT22;19459;53.044;8.910;2023-06-26T00:42:44;21.30;99.90
33095;DHT22;19459;53.044;8.910;2023-06-26T00:45:10;21.30;99.90
33095;DHT22;19459;53.044;8.910;2023-06-26T00:47:36;21.30;99.90
33095;DHT22;19459;53.044;8.910;2023-06-26T00:50:03;21.30;99.90
33095;DHT22;19459;53.044;8.910;2023-06-26T00:52:30;21.20;99.90
33095;DHT22;19459;53.044;8.910;2023-06-26T00:54:57;21.20;99.90
33095;DHT22;19459;53.044;8.910;2023-06-26T00:57:23;21.20;99.90
33095;DHT22;19459;53.044;8.910;2023-06-26T00:59:49;21.10;99.90
33095;DHT22;19459;53.044;8.910;2023-06-26T01:02:15;21.10;99.90
33095;DHT22;19459;53.044;8.910;2023-06-26T01:04:50;21.10;99.90
33095;DHT22;19459;53.044;8.910;2023-06-26T01:07:16;21.00;99.90
33095;DHT22;19459;53.044;8.910;2023-06-26T01:09:47;21.00;99.90
33095;DHT22;19459;53.044;8.910;2023-06-26T01:12:14;21.00;99.90
33095;DHT22;19459;53.044;8.910;2023-06-26T01:14:40;21.00;99.90
33095;DHT22;19459;53.044;8.910;2023-06-26T01:17:07;20.90;99.90
33095;DHT22;19459;53.044;8.910;2023-06-26T01:19:39;20.90;99.90
33095;DHT22;19459;53.044;8.910;2023-06-26T01:22:19;20.90;99.90
33095;DHT22;19459;53.044;8.910;2023-06-26T01:28:04;20.80;99.90
33095;DHT22;19459;53.044;8.910;2023-06-26T01:30:32;20.70;99.90
33095;DHT22;19459;53.044;8.910;2023-06-26T01:33:00;20.70;99.90
33095;DHT22;19459;53.044;8.910;2023-06-26T01:35:27;20.70;99.90
33095;DHT22;19459;53.044;8.910;2023-06-26T01:37:54;20.70;99.90
33095;DHT22;19459;53.044;8.910;2023-06-26T01:40:37;20.70;99.90
33095;DHT22;19459;53.044;8.910;2023-06-26T01:43:03;20.70;99.90
33095;DHT22;19459;53.044;8.910;2023-06-26T01:45:32;20.70;99.90
33095;DHT22;19459;53.044;8.910;2023-06-26T01:48:00;20.60;99.90
33095;DHT22;19459;53.044;8.910;2023-06-26T01:50:29;20.60;99.90
33095;DHT22;19459;53.044;8.910;2023-06-26T01:53:12;20.60;99.90
33095;DHT22;19459;53.044;8.910;2023-06-26T01:56:11;20.50;99.90
33095;DHT22;19459;53.044;8.910;2023-06-26T01:58:41;20.50;99.90
33095;DHT22;19459;53.044;8.910;2023-06-26T02:01:09;20.50;99.90
33095;DHT22;19459;53.044;8.910;2023-06-26T02:03:35;20.50;99.90
33095;DHT22;19459;53.044;8.910;2023-06-26T02:06:01;20.40;99.90
33095;DHT22;19459;53.044;8.910;2023-06-26T02:08:26;20.40;99.90
33095;DHT22;19459;53.044;8.910;2023-06-26T02:10:52;20.40;99.90
33095;DHT22;19459;53.044;8.910;2023-06-26T02:13:18;20.40;99.90
33095;DHT22;19459;53.044;8.910;2023-06-26T02:15:44;20.30;99.90
33095;DHT22;19459;53.044;8.910;2023-06-26T02:18:11;20.30;99.90
33095;DHT22;19459;53.044;8.910;2023-06-26T02:20:36;20.30;99.90
33095;DHT22;19459;53.044;8.910;2023-06-26T02:23:02;20.30;99.90
33095;DHT22;19459;53.044;8.910;2023-06-26T02:25:28;20.20;99.90
33095;DHT22;19459;53.044;8.910;2023-06-26T02:27:54;20.20;99.90
33095;DHT22;19459;53.044;8.910;2023-06-26T02:30:20;20.20;99.90
33095;DHT22;19459;53.044;8.910;2023-06-26T02:32:46;20.20;99.90
33095;DHT22;19459;53.044;8.910;2023-06-26T02:35:11;20.20;99.90
33095;DHT22;19459;53.044;8.910;2023-06-26T02:37:37;20.10;99.90
33095;DHT22;19459;53.044;8.910;2023-06-26T02:40:04;20.10;99.90
33095;DHT22;19459;53.044;8.910;2023-06-26T02:42:31;20.10;99.90
33095;DHT22;19459;53.044;8.910;2023-06-26T02:44:57;20.00;99.90
33095;DHT22;19459;53.044;8.910;2023-06-26T02:47:23;20.00;99.90
33095;DHT22;19459;53.044;8.910;2023-06-26T02:49:48;20.00;99.90
33095;DHT22;19459;53.044;8.910;2023-06-26T02:52:14;20.00;99.90
33095;DHT22;19459;53.044;8.910;2023-06-26T02:54:40;20.00;99.90
33095;DHT22;19459;53.044;8.910;2023-06-26T02:57:06;20.00;99.90
33095;DHT22;19459;53.044;8.910;2023-06-26T02:59:32;20.00;99.90
33095;DHT22;19459;53.044;8.910;2023-06-26T03:01:58;20.00;99.90
33095;DHT22;19459;53.044;8.910;2023-06-26T03:04:24;19.90;99.90
33095;DHT22;19459;53.044;8.910;2023-06-26T03:06:50;19.90;99.90
33095;DHT22;19459;53.044;8.910;2023-06-26T03:09:15;20.00;99.90
33095;DHT22;19459;53.044;8.910;2023-06-26T03:11:42;19.90;99.90
33095;DHT22;19459;53.044;8.910;2023-06-26T03:14:08;19.90;99.90
33095;DHT22;19459;53.044;8.910;2023-06-26T03:16:34;19.90;99.90
33095;DHT22;19459;53.044;8.910;2023-06-26T03:19:00;19.90;99.90
33095;DHT22;19459;53.044;8.910;2023-06-26T03:21:26;19.80;99.90
33095;DHT22;19459;53.044;8.910;2023-06-26T03:23:52;19.90;99.90
33095;DHT22;19459;53.044;8.910;2023-06-26T03:26:18;19.90;99.90
33095;DHT22;19459;53.044;8.910;2023-06-26T03:28:43;19.90;99.90
33095;DHT22;19459;53.044;8.910;2023-06-26T03:31:09;19.90;99.90
33095;DHT22;19459;53.044;8.910;2023-06-26T03:33:36;19.90;99.90
33095;DHT22;19459;53.044;8.910;2023-06-26T03:36:03;19.90;99.90
33095;DHT22;19459;53.044;8.910;2023-06-26T03:38:29;19.90;99.90
33095;DHT22;19459;53.044;8.910;2023-06-26T03:40:54;19.90;99.90
33095;DHT22;19459;53.044;8.910;2023-06-26T03:43:21;19.90;99.90
33095;DHT22;19459;53.044;8.910;2023-06-26T03:45:46;19.90;99.90
33095;DHT22;19459;53.044;8.910;2023-06-26T03:48:12;19.90;99.90
33095;DHT22;19459;53.044;8.910;2023-06-26T03:50:38;19.90;99.90
33095;DHT22;19459;53.044;8.910;2023-06-26T03:53:03;19.90;99.90
33095;DHT22;19459;53.044;8.910;2023-06-26T03:55:29;19.90;99.90
33095;DHT22;19459;53.044;8.910;2023-06-26T03:57:55;20.00;99.90
33095;DHT22;19459;53.044;8.910;2023-06-26T04:00:21;20.00;99.90
33095;DHT22;19459;53.044;8.910;2023-06-26T04:02:47;20.00;99.90
33095;DHT22;19459;53.044;8.910;2023-06-26T04:05:12;20.10;99.90
33095;DHT22;19459;53.044;8.910;2023-06-26T04:07:38;20.10;99.90
33095;DHT22;19459;53.044;8.910;2023-06-26T04:10:05;20.10;99.90
33095;DHT22;19459;53.044;8.910;2023-06-26T04:12:31;20.20;99.90
33095;DHT22;19459;53.044;8.910;2023-06-26T04:14:57;20.10;99.90
33095;DHT22;19459;53.044;8.910;2023-06-26T04:17:23;20.10;99.90
33095;DHT22;19459;53.044;8.910;2023-06-26T04:19:48;20.10;99.90
33095;DHT22;19459;53.044;8.910;2023-06-26T04:22:14;20.20;99.90
33095;DHT22;19459;53.044;8.910;2023-06-26T04:24:40;20.30;99.90
33095;DHT22;19459;53.044;8.910;2023-06-26T04:27:06;20.30;99.90
33095;DHT22;19459;53.044;8.910;2023-06-26T04:29:32;20.30;99.90
33095;DHT22;19459;53.044;8.910;2023-06-26T04:31:58;20.40;99.90
33095;DHT22;19459;53.044;8.910;2023-06-26T04:34:27;20.40;99.90
33095;DHT22;19459;53.044;8.910;2023-06-26T04:36:54;20.40;99.90
33095;DHT22;19459;53.044;8.910;2023-06-26T04:39:20;20.50;99.90
33095;DHT22;19459;53.044;8.910;2023-06-26T04:41:46;20.50;99.90
33095;DHT22;19459;53.044;8.910;2023-06-26T04:44:12;20.60;99.90
33095;DHT22;19459;53.044;8.910;2023-06-26T04:46:38;20.60;99.90
33095;DHT22;19459;53.044;8.910;2023-06-26T04:49:10;20.60;99.90
33095;DHT22;19459;53.044;8.910;2023-06-26T04:51:36;20.70;99.90
33095;DHT22;19459;53.044;8.910;2023-06-26T04:54:12;20.70;99.90
33095;DHT22;19459;53.044;8.910;2023-06-26T04:56:38;20.70;99.90
33095;DHT22;19459;53.044;8.910;2023-06-26T04:59:06;20.70;99.90
33095;DHT22;19459;53.044;8.910;2023-06-26T05:01:38;20.70;99.90
33095;DHT22;19459;53.044;8.910;2023-06-26T05:04:05;20.80;99.90
33095;DHT22;19459;53.044;8.910;2023-06-26T05:06:32;20.80;99.90
33095;DHT22;19459;53.044;8.910;2023-06-26T05:08:58;20.90;99.90
33095;DHT22;19459;53.044;8.910;2023-06-26T05:11:25;20.90;99.90
33095;DHT22;19459;53.044;8.910;2023-06-26T05:13:51;21.00;99.90
33095;DHT22;19459;53.044;8.910;2023-06-26T05:16:17;21.10;99.90
33095;DHT22;19459;53.044;8.910;2023-06-26T05:18:43;21.10;99.90
33095;DHT22;19459;53.044;8.910;2023-06-26T05:21:09;21.20;99.90
33095;DHT22;19459;53.044;8.910;2023-06-26T05:23:35;21.30;99.90
33095;DHT22;19459;53.044;8.910;2023-06-26T05:26:02;21.40;99.90
33095;DHT22;19459;53.044;8.910;2023-06-26T05:28:29;21.50;99.90
33095;DHT22;19459;53.044;8.910;2023-06-26T05:30:57;21.60;99.90
33095;DHT22;19459;53.044;8.910;2023-06-26T05:33:26;21.60;99.90
33095;DHT22;19459;53.044;8.910;2023-06-26T05:35:54;21.70;99.90
33095;DHT22;19459;53.044;8.910;2023-06-26T05:38:21;21.80;99.90
33095;DHT22;19459;53.044;8.910;2023-06-26T05:40:48;21.80;99.90
33095;DHT22;19459;53.044;8.910;2023-06-26T05:43:14;21.80;99.90
33095;DHT22;19459;53.044;8.910;2023-06-26T05:45:40;21.90;99.90
33095;DHT22;19459;53.044;8.910;2023-06-26T05:48:06;21.90;99.90
33095;DHT22;19459;53.044;8.910;2023-06-26T05:50:33;22.00;99.90
33095;DHT22;19459;53.044;8.910;2023-06-26T05:52:59;22.00;99.90
33095;DHT22;19459;53.044;8.910;2023-06-26T05:55:28;22.00;99.90
33095;DHT22;19459;53.044;8.910;2023-06-26T05:57:57;22.10;99.90
33095;DHT22;19459;53.044;8.910;2023-06-26T06:00:25;22.10;99.90
33095;DHT22;19459;53.044;8.910;2023-06-26T06:02:52;22.20;99.90
33095;DHT22;19459;53.044;8.910;2023-06-26T06:05:20;22.20;99.90
33095;DHT22;19459;53.044;8.910;2023-06-26T06:07:49;22.30;99.90
33095;DHT22;19459;53.044;8.910;2023-06-26T06:10:15;22.50;99.90
33095;DHT22;19459;53.044;8.910;2023-06-26T06:12:41;22.60;99.90
33095;DHT22;19459;53.044;8.910;2023-06-26T06:15:07;22.70;99.90
33095;DHT22;19459;53.044;8.910;2023-06-26T06:17:33;22.70;99.90
33095;DHT22;19459;53.044;8.910;2023-06-26T06:19:59;22.90;99.90
33095;DHT22;19459;53.044;8.910;2023-06-26T06:22:25;23.00;99.90
33095;DHT22;19459;53.044;8.910;2023-06-26T06:24:51;23.10;99.90
33095;DHT22;19459;53.044;8.910;2023-06-26T06:27:17;23.20;99.90
33095;DHT22;19459;53.044;8.910;2023-06-26T06:29:43;23.30;99.90
33095;DHT22;19459;53.044;8.910;2023-06-26T06:32:09;23.40;99.90
33095;DHT22;19459;53.044;8.910;2023-06-26T06:34:34;23.50;99.90
33095;DHT22;19459;53.044;8.910;2023-06-26T06:37:01;23.70;99.90
33095;DHT22;19459;53.044;8.910;2023-06-26T06:39:27;23.80;99.90
33095;DHT22;19459;53.044;8.910;2023-06-26T06:41:53;24.00;99.90
33095;DHT22;19459;53.044;8.910;2023-06-26T06:44:19;24.20;99.90
33095;DHT22;19459;53.044;8.910;2023-06-26T06:46:45;24.20;99.90
33095;DHT22;19459;53.044;8.910;2023-06-26T06:49:10;24.40;99.90
33095;DHT22;19459;53.044;8.910;2023-06-26T06:51:36;24.50;99.90
33095;DHT22;19459;53.044;8.910;2023-06-26T06:54:02;24.60;99.90
33095;DHT22;19459;53.044;8.910;2023-06-26T06:56:28;24.70;99.90
33095;DHT22;19459;53.044;8.910;2023-06-26T06:58:53;24.80;99.90
33095;DHT22;19459;53.044;8.910;2023-06-26T07:01:19;25.00;99.90
33095;DHT22;19459;53.044;8.910;2023-06-26T07:03:45;25.10;99.90
33095;DHT22;19459;53.044;8.910;2023-06-26T07:06:11;25.20;99.90
33095;DHT22;19459;53.044;8.910;2023-06-26T07:08:36;25.20;99.90
33095;DHT22;19459;53.044;8.910;2023-06-26T07:11:05;25.40;99.90
33095;DHT22;19459;53.044;8.910;2023-06-26T07:13:30;25.40;99.90
33095;DHT22;19459;53.044;8.910;2023-06-26T07:15:56;25.40;99.90
33095;DHT22;19459;53.044;8.910;2023-06-26T07:18:22;25.50;99.90
33095;DHT22;19459;53.044;8.910;2023-06-26T07:20:47;25.60;99.90
33095;DHT22;19459;53.044;8.910;2023-06-26T07:23:13;25.60;99.90
33095;DHT22;19459;53.044;8.910;2023-06-26T07:25:39;25.60;99.90
33095;DHT22;19459;53.044;8.910;2023-06-26T07:28:12;25.60;99.90
33095;DHT22;19459;53.044;8.910;2023-06-26T07:30:38;25.70;99.90
33095;DHT22;19459;53.044;8.910;2023-06-26T07:33:05;25.80;99.90
33095;DHT22;19459;53.044;8.910;2023-06-26T07:35:31;25.80;99.90
33095;DHT22;19459;53.044;8.910;2023-06-26T07:37:56;25.90;99.90
33095;DHT22;19459;53.044;8.910;2023-06-26T07:40:22;25.60;99.90
33095;DHT22;19459;53.044;8.910;2023-06-26T07:42:48;25.80;99.90
33095;DHT22;19459;53.044;8.910;2023-06-26T07:45:14;26.00;99.90
33095;DHT22;19459;53.044;8.910;2023-06-26T07:47:40;25.90;99.90
33095;DHT22;19459;53.044;8.910;2023-06-26T07:50:06;26.00;99.90
33095;DHT22;19459;53.044;8.910;2023-06-26T07:52:32;26.20;99.90
33095;DHT22;19459;53.044;8.910;2023-06-26T07:54:58;26.50;99.90
33095;DHT22;19459;53.044;8.910;2023-06-26T07:57:24;26.50;99.90
33095;DHT22;19459;53.044;8.910;2023-06-26T07:59:50;26.40;99.90
33095;DHT22;19459;53.044;8.910;2023-06-26T08:02:16;26.40;99.90
33095;DHT22;19459;53.044;8.910;2023-06-26T08:04:43;26.40;99.90
33095;DHT22;19459;53.044;8.910;2023-06-26T08:07:09;26.10;99.90
33095;DHT22;19459;53.044;8.910;2023-06-26T08:09:35;26.10;99.90
33095;DHT22;19459;53.044;8.910;2023-06-26T08:12:00;26.10;99.90
33095;DHT22;19459;53.044;8.910;2023-06-26T08:14:26;26.00;99.90
33095;DHT22;19459;53.044;8.910;2023-06-26T08:16:52;25.70;99.90
33095;DHT22;19459;53.044;8.910;2023-06-26T08:19:18;25.60;99.90
33095;DHT22;19459;53.044;8.910;2023-06-26T08:21:45;25.70;99.90
33095;DHT22;19459;53.044;8.910;2023-06-26T08:24:12;25.90;99.90
33095;DHT22;19459;53.044;8.910;2023-06-26T08:26:45;25.90;99.90
33095;DHT22;19459;53.044;8.910;2023-06-26T08:29:12;26.00;99.90
33095;DHT22;19459;53.044;8.910;2023-06-26T08:31:38;26.00;99.90
33095;DHT22;19459;53.044;8.910;2023-06-26T08:34:05;25.80;99.90
33095;DHT22;19459;53.044;8.910;2023-06-26T08:36:31;25.90;99.90
33095;DHT22;19459;53.044;8.910;2023-06-26T08:38:58;25.90;99.90
33095;DHT22;19459;53.044;8.910;2023-06-26T08:41:33;25.60;99.90
33095;DHT22;19459;53.044;8.910;2023-06-26T08:43:59;25.20;99.90
33095;DHT22;19459;53.044;8.910;2023-06-26T08:46:26;24.70;99.90
33095;DHT22;19459;53.044;8.910;2023-06-26T08:49:00;24.50;99.90
33095;DHT22;19459;53.044;8.910;2023-06-26T08:51:28;24.30;99.90
33095;DHT22;19459;53.044;8.910;2023-06-26T08:54:01;24.10;99.90
33095;DHT22;19459;53.044;8.910;2023-06-26T08:56:28;23.60;99.90
33095;DHT22;19459;53.044;8.910;2023-06-26T08:58:58;23.10;99.90
33095;DHT22;19459;53.044;8.910;2023-06-26T09:01:25;22.70;99.90
33095;DHT22;19459;53.044;8.910;2023-06-26T09:03:51;22.60;99.90
33095;DHT22;19459;53.044;8.910;2023-06-26T09:06:17;22.40;99.90
33095;DHT22;19459;53.044;8.910;2023-06-26T09:08:44;22.40;99.90
33095;DHT22;19459;53.044;8.910;2023-06-26T09:11:09;22.40;99.90
33095;DHT22;19459;53.044;8.910;2023-06-26T09:13:35;22.30;99.90
33095;DHT22;19459;53.044;8.910;2023-06-26T09:16:08;22.20;99.90
33095;DHT22;19459;53.044;8.910;2023-06-26T09:18:34;22.10;99.90
33095;DHT22;19459;53.044;8.910;2023-06-26T09:21:07;22.20;99.90
33095;DHT22;19459;53.044;8.910;2023-06-26T09:23:34;22.30;99.90
33095;DHT22;19459;53.044;8.910;2023-06-26T09:26:05;22.30;99.90
33095;DHT22;19459;53.044;8.910;2023-06-26T09:28:35;22.40;99.90
33095;DHT22;19459;53.044;8.910;2023-06-26T09:31:06;22.60;99.90
33095;DHT22;19459;53.044;8.910;2023-06-26T09:33:36;22.60;99.90
33095;DHT22;19459;53.044;8.910;2023-06-26T09:36:09;22.60;99.90
33095;DHT22;19459;53.044;8.910;2023-06-26T09:38:45;22.70;99.90
33095;DHT22;19459;53.044;8.910;2023-06-26T09:41:11;22.80;99.90
33095;DHT22;19459;53.044;8.910;2023-06-26T09:43:49;23.20;99.90
33095;DHT22;19459;53.044;8.910;2023-06-26T09:46:29;23.10;99.90
33095;DHT22;19459;53.044;8.910;2023-06-26T09:49:05;23.10;99.90
33095;DHT22;19459;53.044;8.910;2023-06-26T09:51:35;23.20;99.90
33095;DHT22;19459;53.044;8.910;2023-06-26T09:54:03;23.50;99.90
33095;DHT22;19459;53.044;8.910;2023-06-26T09:56:30;23.50;99.90
33095;DHT22;19459;53.044;8.910;2023-06-26T09:58:58;23.40;99.90
33095;DHT22;19459;53.044;8.910;2023-06-26T10:01:29;23.20;99.90
33095;DHT22;19459;53.044;8.910;2023-06-26T10:03:55;23.20;99.90
33095;DHT22;19459;53.044;8.910;2023-06-26T10:09:00;23.30;99.90
33095;DHT22;19459;53.044;8.910;2023-06-26T10:11:46;23.50;99.90
33095;DHT22;19459;53.044;8.910;2023-06-26T10:14:15;23.70;99.90
33095;DHT22;19459;53.044;8.910;2023-06-26T10:16:42;23.70;99.90
33095;DHT22;19459;53.044;8.910;2023-06-26T10:19:10;23.70;99.90
33095;DHT22;19459;53.044;8.910;2023-06-26T10:21:38;24.00;99.90
33095;DHT22;19459;53.044;8.910;2023-06-26T10:24:06;24.00;99.90
33095;DHT22;19459;53.044;8.910;2023-06-26T10:26:35;24.30;99.90
33095;DHT22;19459;53.044;8.910;2023-06-26T10:29:05;24.60;99.90
33095;DHT22;19459;53.044;8.910;2023-06-26T10:31:32;24.70;99.90
33095;DHT22;19459;53.044;8.910;2023-06-26T10:33:58;24.70;99.90
33095;DHT22;19459;53.044;8.910;2023-06-26T10:36:29;24.50;99.90
33095;DHT22;19459;53.044;8.910;2023-06-26T10:38:58;24.40;99.90
33095;DHT22;19459;53.044;8.910;2023-06-26T10:41:27;24.50;99.90
33095;DHT22;19459;53.044;8.910;2023-06-26T10:46:52;25.10;99.90
33095;DHT22;19459;53.044;8.910;2023-06-26T10:49:29;25.60;99.90
33095;DHT22;19459;53.044;8.910;2023-06-26T10:51:55;25.90;99.90
33095;DHT22;19459;53.044;8.910;2023-06-26T10:54:28;25.90;99.70
33095;DHT22;19459;53.044;8.910;2023-06-26T10:56:56;25.80;99.70
33095;DHT22;19459;53.044;8.910;2023-06-26T10:59:31;25.40;99.90
33095;DHT22;19459;53.044;8.910;2023-06-26T11:02:01;25.30;99.90
33095;DHT22;19459;53.044;8.910;2023-06-26T11:04:47;25.70;99.90
33095;DHT22;19459;53.044;8.910;2023-06-26T11:07:25;26.40;99.90
33095;DHT22;19459;53.044;8.910;2023-06-26T11:10:10;26.70;97.90
33095;DHT22;19459;53.044;8.910;2023-06-26T11:12:42;26.50;98.30
33095;DHT22;19459;53.044;8.910;2023-06-26T11:15:16;26.00;98.70
33095;DHT22;19459;53.044;8.910;2023-06-26T11:17:43;25.70;98.80
33095;DHT22;19459;53.044;8.910;2023-06-26T11:20:11;25.30;99.00
33095;DHT22;19459;53.044;8.910;2023-06-26T11:22:40;25.10;99.90
33095;DHT22;19459;53.044;8.910;2023-06-26T11:25:08;25.30;97.50
33095;DHT22;19459;53.044;8.910;2023-06-26T11:30:08;25.50;97.00
33095;DHT22;19459;53.044;8.910;2023-06-26T11:32:39;25.60;96.80
33095;DHT22;19459;53.044;8.910;2023-06-26T11:35:05;25.80;96.20
33095;DHT22;19459;53.044;8.910;2023-06-26T11:37:32;25.70;96.30
33095;DHT22;19459;53.044;8.910;2023-06-26T11:40:16;25.30;95.20
33095;DHT22;19459;53.044;8.910;2023-06-26T11:42:44;25.60;97.10
33095;DHT22;19459;53.044;8.910;2023-06-26T11:45:10;25.60;95.40
33095;DHT22;19459;53.044;8.910;2023-06-26T11:47:38;25.50;94.90
33095;DHT22;19459;53.044;8.910;2023-06-26T11:50:15;25.40;95.70
33095;DHT22;19459;53.044;8.910;2023-06-26T11:52:45;25.80;95.90
33095;DHT22;19459;53.044;8.910;2023-06-26T11:55:11;26.20;95.60
33095;DHT22;19459;53.044;8.910;2023-06-26T11:57:37;26.30;94.50
33095;DHT22;19459;53.044;8.910;2023-06-26T12:00:14;26.20;95.80
33095;DHT22;19459;53.044;8.910;2023-06-26T12:02:40;26.40;95.10
33095;DHT22;19459;53.044;8.910;2023-06-26T12:05:07;26.50;95.60
33095;DHT22;19459;53.044;8.910;2023-06-26T12:07:33;26.60;95.70
33095;DHT22;19459;53.044;8.910;2023-06-26T12:10:01;26.80;94.40
33095;DHT22;19459;53.044;8.910;2023-06-26T12:12:27;26.70;93.80
33095;DHT22;19459;53.044;8.910;2023-06-26T12:14:53;26.60;93.50
33095;DHT22;19459;53.044;8.910;2023-06-26T12:17:22;26.60;94.00
33095;DHT22;19459;53.044;8.910;2023-06-26T12:19:50;26.90;94.30
33095;DHT22;19459;53.044;8.910;2023-06-26T12:22:17;26.60;93.40
33095;DHT22;19459;53.044;8.910;2023-06-26T12:24:44;26.30;92.60
33095;DHT22;19459;53.044;8.910;2023-06-26T12:27:17;26.00;93.60
33095;DHT22;19459;53.044;8.910;2023-06-26T12:29:54;26.00;93.80
33095;DHT22;19459;53.044;8.910;2023-06-26T12:32:25;25.90;94.50
33095;DHT22;19459;53.044;8.910;2023-06-26T12:34:51;25.70;94.10
33095;DHT22;19459;53.044;8.910;2023-06-26T12:37:17;25.90;94.10
33095;DHT22;19459;53.044;8.910;2023-06-26T12:39:46;25.50;93.70
33095;DHT22;19459;53.044;8.910;2023-06-26T12:42:18;25.70;94.60
33095;DHT22;19459;53.044;8.910;2023-06-26T12:44:45;25.60;94.70
33095;DHT22;19459;53.044;8.910;2023-06-26T12:47:11;26.10;95.20
33095;DHT22;19459;53.044;8.910;2023-06-26T12:49:40;26.10;94.60
33095;DHT22;19459;53.044;8.910;2023-06-26T12:52:14;26.00;94.60
33095;DHT22;19459;53.044;8.910;2023-06-26T12:54:41;25.70;94.20
33095;DHT22;19459;53.044;8.910;2023-06-26T12:57:08;25.70;94.10
33095;DHT22;19459;53.044;8.910;2023-06-26T12:59:36;25.10;94.60
33095;DHT22;19459;53.044;8.910;2023-06-26T13:02:03;24.90;94.50
33095;DHT22;19459;53.044;8.910;2023-06-26T13:04:29;25.20;95.30
33095;DHT22;19459;53.044;8.910;2023-06-26T13:06:55;25.30;94.60
33095;DHT22;19459;53.044;8.910;2023-06-26T13:09:25;25.10;94.60
33095;DHT22;19459;53.044;8.910;2023-06-26T13:11:52;25.10;95.20
33095;DHT22;19459;53.044;8.910;2023-06-26T13:14:18;25.10;95.40
33095;DHT22;19459;53.044;8.910;2023-06-26T13:16:44;25.20;95.90
33095;DHT22;19459;53.044;8.910;2023-06-26T13:19:10;25.40;95.70
33095;DHT22;19459;53.044;8.910;2023-06-26T13:21:36;25.60;95.00
33095;DHT22;19459;53.044;8.910;2023-06-26T13:24:02;26.00;94.80
33095;DHT22;19459;53.044;8.910;2023-06-26T13:26:29;26.10;93.90
33095;DHT22;19459;53.044;8.910;2023-06-26T13:28:56;26.10;92.90
33095;DHT22;19459;53.044;8.910;2023-06-26T13:31:21;26.30;93.00
33095;DHT22;19459;53.044;8.910;2023-06-26T13:33:47;26.70;93.30
33095;DHT22;19459;53.044;8.910;2023-06-26T13:36:18;26.80;92.60
33095;DHT22;19459;53.044;8.910;2023-06-26T13:38:44;26.70;92.90
33095;DHT22;19459;53.044;8.910;2023-06-26T13:41:10;26.60;93.60
33095;DHT22;19459;53.044;8.910;2023-06-26T13:43:37;26.40;93.90
33095;DHT22;19459;53.044;8.910;2023-06-26T13:46:06;26.30;93.80
33095;DHT22;19459;53.044;8.910;2023-06-26T13:48:35;25.80;93.60
33095;DHT22;19459;53.044;8.910;2023-06-26T13:51:01;25.80;93.80
33095;DHT22;19459;53.044;8.910;2023-06-26T13:53:27;26.10;93.80
33095;DHT22;19459;53.044;8.910;2023-06-26T13:55:53;26.30;93.60
33095;DHT22;19459;53.044;8.910;2023-06-26T13:58:18;26.20;92.90
33095;DHT22;19459;53.044;8.910;2023-06-26T14:00:48;25.80;92.90
33095;DHT22;19459;53.044;8.910;2023-06-26T14:03:14;25.50;93.20
33095;DHT22;19459;53.044;8.910;2023-06-26T14:05:39;25.10;93.80
33095;DHT22;19459;53.044;8.910;2023-06-26T14:08:07;25.30;93.90
33095;DHT22;19459;53.044;8.910;2023-06-26T14:10:34;25.40;94.30
33095;DHT22;19459;53.044;8.910;2023-06-26T14:13:00;25.30;93.60
33095;DHT22;19459;53.044;8.910;2023-06-26T14:15:26;25.00;94.10
33095;DHT22;19459;53.044;8.910;2023-06-26T14:17:52;24.90;94.90
33095;DHT22;19459;53.044;8.910;2023-06-26T14:20:18;24.90;95.30
33095;DHT22;19459;53.044;8.910;2023-06-26T14:22:46;24.70;93.90
33095;DHT22;19459;53.044;8.910;2023-06-26T14:25:13;24.80;94.40
33095;DHT22;19459;53.044;8.910;2023-06-26T14:27:39;25.10;94.20
33095;DHT22;19459;53.044;8.910;2023-06-26T14:30:05;25.30;92.90
33095;DHT22;19459;53.044;8.910;2023-06-26T14:32:33;25.50;94.20
33095;DHT22;19459;53.044;8.910;2023-06-26T14:34:59;25.80;93.50
33095;DHT22;19459;53.044;8.910;2023-06-26T14:37:26;25.80;93.10
33095;DHT22;19459;53.044;8.910;2023-06-26T14:39:52;25.40;93.10
33095;DHT22;19459;53.044;8.910;2023-06-26T14:42:18;24.80;92.90
33095;DHT22;19459;53.044;8.910;2023-06-26T14:44:44;24.40;94.30
33095;DHT22;19459;53.044;8.910;2023-06-26T14:47:13;24.00;94.50
33095;DHT22;19459;53.044;8.910;2023-06-26T14:49:40;23.80;95.00
33095;DHT22;19459;53.044;8.910;2023-06-26T14:52:06;23.60;94.50
33095;DHT22;19459;53.044;8.910;2023-06-26T14:54:32;23.40;94.80
33095;DHT22;19459;53.044;8.910;2023-06-26T14:56:58;23.20;94.70
33095;DHT22;19459;53.044;8.910;2023-06-26T14:59:25;23.30;95.10
33095;DHT22;19459;53.044;8.910;2023-06-26T15:01:51;23.40;94.40
33095;DHT22;19459;53.044;8.910;2023-06-26T15:04:17;23.50;95.30
33095;DHT22;19459;53.044;8.910;2023-06-26T15:06:43;23.50;94.80
33095;DHT22;19459;53.044;8.910;2023-06-26T15:09:08;23.60;95.10
33095;DHT22;19459;53.044;8.910;2023-06-26T15:11:34;23.60;96.00
33095;DHT22;19459;53.044;8.910;2023-06-26T15:14:01;23.50;94.50
33095;DHT22;19459;53.044;8.910;2023-06-26T15:16:27;23.40;94.90
33095;DHT22;19459;53.044;8.910;2023-06-26T15:19:06;23.20;94.80
33095;DHT22;19459;53.044;8.910;2023-06-26T15:21:32;23.10;95.40
33095;DHT22;19459;53.044;8.910;2023-06-26T15:23:57;23.10;95.70
33095;DHT22;19459;53.044;8.910;2023-06-26T15:26:23;23.20;96.50
33095;DHT22;19459;53.044;8.910;2023-06-26T15:28:49;23.20;95.40
33095;DHT22;19459;53.044;8.910;2023-06-26T15:31:17;23.20;96.00
33095;DHT22;19459;53.044;8.910;2023-06-26T15:33:42;23.20;95.50
33095;DHT22;19459;53.044;8.910;2023-06-26T15:36:08;23.10;95.90
33095;DHT22;19459;53.044;8.910;2023-06-26T15:38:34;23.20;96.20
33095;DHT22;19459;53.044;8.910;2023-06-26T15:41:20;23.30;95.70
33095;DHT22;19459;53.044;8.910;2023-06-26T15:43:46;23.20;96.00